Time;durP1;ratioP1;P1;durP2;ratioP2;P2;SDS_P1;SDS_P2;PMS_P1;PMS_P2;Temp;Humidity;BMP_temperature;BMP_pressure;BME280_temperature;BME280_humidity;BME280_pressure;Samples;Min_cycle;Max_cycle;Signal;HPM_P1;HPM_P2
2023/03/14 00:01:57;;;;;;;5.05;1.35;;;;;;;9.54;79.16;98633.78;10080158;29;20706;-80
2023/03/14 00:06:58;;;;;;;5.70;1.92;;;;;;;9.48;79.37;98628.66;10080039;29;20060;-79
2023/03/14 00:12:00;;;;;;;3.08;1.35;;;;;;;9.45;79.43;98633.06;10079314;29;20053;-81
2023/03/14 00:17:01;;;;;;;3.38;0.50;;;;;;;9.42;79.69;98627.88;10078755;29;20123;-79
2023/03/14 00:22:03;;;;;;;4.38;0.98;;;;;;;9.45;79.96;98618.25;10079718;29;20433;-79
2023/03/14 00:27:04;;;;;;;2.67;0.80;;;;;;;9.61;79.79;98608.47;10106052;29;20064;-82
2023/03/14 00:32:06;;;;;;;4.93;1.52;;;;;;;9.72;79.72;98630.06;10091323;29;20479;-79
2023/03/14 00:37:08;;;;;;;1.63;0.98;;;;;;;9.83;79.82;98618.59;10084621;29;20057;-79
2023/03/14 00:42:09;;;;;;;0.40;0.30;;;;;;;9.85;79.95;98611.63;10106138;29;20067;-80
2023/03/14 00:47:11;;;;;;;1.60;1.02;;;;;;;9.95;80.40;98615.78;10088632;29;20056;-78
2023/03/14 00:52:12;;;;;;;1.17;0.82;;;;;;;10.03;80.70;98600.88;10091735;29;20053;-80
2023/03/14 00:57:14;;;;;;;4.57;1.15;;;;;;;10.07;81.10;98594.72;10091202;29;20168;-80
2023/03/14 01:02:16;;;;;;;6.90;1.38;;;;;;;10.07;81.41;98583.38;10085032;29;20147;-79
2023/03/14 01:07:17;;;;;;;2.58;1.13;;;;;;;10.16;82.04;98584.97;10092086;29;20526;-79
2023/03/14 01:12:19;;;;;;;0.57;0.45;;;;;;;10.16;82.31;98564.06;10084634;29;20053;-79
2023/03/14 01:17:21;;;;;;;1.58;0.93;;;;;;;10.23;82.58;98563.06;10105361;29;20145;-79
2023/03/14 01:22:23;;;;;;;0.73;0.60;;;;;;;10.21;82.94;98549.16;10091652;29;20143;-79
2023/03/14 01:27:25;;;;;;;3.80;1.10;;;;;;;10.24;83.20;98533.41;10086082;29;20045;-79
2023/03/14 01:32:26;;;;;;;4.40;1.40;;;;;;;10.20;83.35;98542.19;10090031;29;20109;-80
2023/03/14 01:37:28;;;;;;;1.85;0.73;;;;;;;10.18;83.54;98551.84;10101328;29;20053;-79
2023/03/14 01:42:30;;;;;;;1.33;1.00;;;;;;;10.20;83.80;98545.66;10080156;29;20049;-79
2023/03/14 01:47:32;;;;;;;1.30;0.57;;;;;;;10.18;84.02;98531.75;10085845;29;20399;-80
2023/03/14 01:52:42;;;;;;;0.68;0.50;;;;;;;10.16;84.16;98507.38;10078974;29;20052;-82
2023/03/14 01:57:47;;;;;;;0.88;0.50;;;;;;;10.17;84.49;98492.56;10098281;29;20057;-81
2023/03/14 02:02:55;;;;;;;2.20;0.90;;;;;;;10.16;84.54;98490.84;10098503;29;20486;-82
2023/03/14 02:07:59;;;;;;;1.25;0.90;;;;;;;10.14;84.50;98490.00;10083922;29;20054;-78
2023/03/14 02:13:06;;;;;;;4.13;1.00;;;;;;;10.10;84.64;98486.56;10075767;29;20082;-79
2023/03/14 02:18:20;;;;;;;3.85;0.75;;;;;;;10.03;84.71;98493.66;10083809;29;20057;-80
2023/03/14 02:23:47;;;;;;;0.77;0.73;;;;;;;10.09;84.73;98513.63;10082524;29;20057;-81
2023/03/14 02:28:50;;;;;;;1.73;0.85;;;;;;;10.15;84.79;98494.31;10075152;29;20132;-79
2023/03/14 02:33:52;;;;;;;2.05;0.52;;;;;;;10.17;84.60;98509.09;10080331;29;20053;-82
2023/03/14 02:39:13;;;;;;;1.35;0.90;;;;;;;10.22;84.47;98504.69;10081042;29;20815;-79
2023/03/14 02:44:17;;;;;;;4.13;1.02;;;;;;;10.29;84.45;98505.41;10080413;29;20117;-79
2023/03/14 02:49:19;;;;;;;0.45;0.45;;;;;;;10.31;84.24;98508.00;10082006;29;20055;-80
2023/03/14 02:54:21;;;;;;;0.90;0.57;;;;;;;10.35;83.88;98523.63;10082823;29;20122;-79
2023/03/14 02:59:24;;;;;;;13.05;1.00;;;;;;;10.28;84.17;98527.22;10080391;29;20072;-80
2023/03/14 03:04:30;;;;;;;1.30;0.52;;;;;;;10.02;83.21;98528.53;10081392;29;20537;-82
2023/03/14 03:09:31;;;;;;;0.20;0.15;;;;;;;9.75;82.24;98542.06;10075921;29;20041;-79
2023/03/14 03:14:33;;;;;;;4.85;0.30;;;;;;;9.41;82.00;98532.09;10097066;29;20101;-80
2023/03/14 03:19:38;;;;;;;0.45;0.40;;;;;;;9.00;83.29;98523.94;10070949;29;20097;-80
2023/03/14 03:24:39;;;;;;;2.38;0.30;;;;;;;8.68;84.26;98522.59;10091489;29;20045;-81
2023/03/14 03:29:41;;;;;;;0.40;0.40;;;;;;;8.45;85.42;98523.72;10083301;29;20069;-80
2023/03/14 03:34:42;;;;;;;2.05;0.40;;;;;;;8.27;86.89;98509.09;10100411;29;20041;-80
2023/03/14 03:39:44;;;;;;;0.10;0.10;;;;;;;8.22;88.00;98505.66;10102394;29;20055;-81
2023/03/14 03:44:48;;;;;;;1.63;0.57;;;;;;;8.25;88.67;98505.63;10105179;29;20037;-81
2023/03/14 03:49:50;;;;;;;1.27;0.75;;;;;;;8.25;89.67;98500.41;10111104;29;20057;-82
2023/03/14 03:54:52;;;;;;;0.65;0.60;;;;;;;8.33;90.15;98495.09;10107673;29;20093;-82
2023/03/14 03:59:54;;;;;;;1.05;0.52;;;;;;;8.37;90.91;98488.13;10097213;29;20045;-82
2023/03/14 04:05:02;;;;;;;0.45;0.45;;;;;;;8.37;91.14;98481.16;10091043;29;20406;-83
2023/03/14 04:10:09;;;;;;;1.75;0.63;;;;;;;8.42;91.56;98481.09;10083963;29;20569;-82
2023/03/14 04:15:36;;;;;;;2.72;1.15;;;;;;;8.42;91.86;98481.09;10083328;29;20053;-82
2023/03/14 04:20:54;;;;;;;1.85;0.73;;;;;;;8.44;91.90;98497.66;10083913;29;20559;-82
2023/03/14 04:26:20;;;;;;;1.75;0.95;;;;;;;8.53;92.02;98481.91;10082011;29;20055;-82
2023/03/14 04:31:42;;;;;;;1.92;0.60;;;;;;;8.60;92.19;98488.78;10082283;29;20076;-82
2023/03/14 04:36:48;;;;;;;0.20;0.20;;;;;;;8.63;91.87;98493.97;10066412;29;20072;-82
2023/03/14 04:42:10;;;;;;;0.60;0.40;;;;;;;8.65;91.21;98494.78;10089289;29;20082;-83
2023/03/14 04:47:54;;;;;;;0.10;0.10;;;;;;;8.70;90.61;98483.44;10078851;29;20065;-81
2023/03/14 04:53:13;;;;;;;0.20;0.20;;;;;;;8.70;90.14;98489.50;10078081;29;20132;-84
2023/03/14 04:58:23;;;;;;;0.30;0.30;;;;;;;8.66;89.75;98475.66;10098335;29;20049;-84
2023/03/14 05:03:30;;;;;;;1.30;0.50;;;;;;;8.60;89.06;98475.75;10077670;29;20859;-84
2023/03/14 05:09:15;;;;;;;1.83;0.73;;;;;;;8.57;88.99;98475.78;10052051;29;20773;-84
2023/03/14 05:14:40;;;;;;;1.52;0.85;;;;;;;8.56;89.08;98462.75;10094714;29;20057;-83
2023/03/14 05:20:12;;;;;;;8.13;1.03;;;;;;;8.57;88.83;98459.25;10097317;29;20057;-84
2023/03/14 05:25:58;;;;;;;0.32;0.32;;;;;;;8.50;88.94;98468.91;10084904;29;20060;-84
2023/03/14 05:31:43;;;;;;;0.32;0.28;;;;;;;8.51;88.96;98454.09;10089035;29;20060;-83
2023/03/14 05:37:16;;;;;;;0.68;0.50;;;;;;;8.46;88.78;98462.84;10089011;29;20400;-83
2023/03/14 05:42:38;;;;;;;0.43;0.40;;;;;;;8.49;88.68;98473.22;10095407;29;20049;-84
2023/03/14 05:47:51;;;;;;;0.45;0.45;;;;;;;8.55;88.57;98467.09;10096403;29;20125;-83
2023/03/14 05:53:22;;;;;;;5.18;0.35;;;;;;;8.55;88.17;98456.66;10063481;29;20057;-83
2023/03/14 05:58:48;;;;;;;4.13;1.05;;;;;;;8.61;87.95;98459.19;10112525;29;20426;-84
2023/03/14 06:04:01;;;;;;;1.52;0.50;;;;;;;8.62;87.83;98460.91;10099149;29;20052;-83
2023/03/14 06:09:04;;;;;;;0.73;0.52;;;;;;;8.58;88.01;98471.41;10097091;29;20053;-84
2023/03/14 06:14:07;;;;;;;0.77;0.68;;;;;;;8.48;88.10;98476.75;10075975;29;20061;-84
2023/03/14 06:19:15;;;;;;;0.65;0.52;;;;;;;8.34;88.79;98449.06;10087688;29;20057;-85
2023/03/14 06:24:17;;;;;;;1.00;0.45;;;;;;;8.27;89.25;98461.28;10098687;29;20076;-83
2023/03/14 06:29:26;;;;;;;0.52;0.52;;;;;;;8.26;89.78;98470.84;10104984;29;20053;-85
2023/03/14 06:34:43;;;;;;;1.17;0.68;;;;;;;8.24;90.03;98456.97;10086839;29;20776;-85
2023/03/14 06:40:03;;;;;;;0.65;0.40;;;;;;;8.27;90.09;98458.66;10078453;29;20045;-85
2023/03/14 06:45:30;;;;;;;1.75;1.17;;;;;;;8.31;90.21;98453.41;10091610;29;20063;-84
2023/03/14 06:50:34;;;;;;;0.65;0.50;;;;;;;8.37;90.44;98452.47;10082227;29;20115;-84
2023/03/14 06:55:37;;;;;;;0.68;0.60;;;;;;;8.48;90.23;98455.88;10081858;29;20060;-85
2023/03/14 07:00:43;;;;;;;1.25;0.68;;;;;;;8.60;89.99;98453.97;10080875;29;20053;-85
2023/03/14 07:05:58;;;;;;;2.85;1.10;;;;;;;8.67;90.06;98466.06;10077682;29;20056;-84
2023/03/14 07:11:02;;;;;;;0.60;0.38;;;;;;;8.74;89.55;98461.66;10095417;29;20140;-84
2023/03/14 07:16:08;;;;;;;0.45;0.40;;;;;;;8.93;89.75;98486.63;10079162;29;20056;-85
2023/03/14 07:21:12;;;;;;;2.28;0.60;;;;;;;9.00;89.32;98475.19;10081077;29;20060;-85
2023/03/14 07:26:14;;;;;;;1.60;0.50;;;;;;;9.12;89.11;98479.41;10095935;29;20049;-84
2023/03/14 07:31:21;;;;;;;0.52;0.45;;;;;;;9.16;88.92;98475.00;10072320;29;20053;-84
2023/03/14 07:36:23;;;;;;;2.05;1.00;;;;;;;9.02;88.79;98473.47;10095257;29;20077;-84
2023/03/14 07:41:24;;;;;;;0.65;0.40;;;;;;;8.96;88.99;98477.88;10080132;29;20422;-84
2023/03/14 07:46:45;;;;;;;1.30;0.68;;;;;;;8.93;89.13;98493.59;10079354;29;20045;-88
2023/03/14 07:51:50;;;;;;;2.35;0.52;;;;;;;8.96;89.24;98499.66;10079265;29;20061;-84
2023/03/14 07:56:52;;;;;;;2.05;0.73;;;;;;;9.01;88.98;98499.59;10075416;29;20053;-86
2023/03/14 08:01:53;;;;;;;4.35;0.60;;;;;;;9.13;89.01;98506.41;10096038;29;20606;-81
2023/03/14 08:06:55;;;;;;;8.65;1.27;;;;;;;9.14;88.82;98515.94;10090435;29;20040;-81
2023/03/14 08:11:56;;;;;;;1.80;0.75;;;;;;;9.16;88.98;98524.63;10091612;29;20502;-82
2023/03/14 08:16:59;;;;;;;1.67;0.80;;;;;;;9.14;88.92;98519.41;10089356;29;20049;-81
2023/03/14 08:22:01;;;;;;;1.08;0.52;;;;;;;9.06;88.79;98521.25;10092699;29;20068;-81
2023/03/14 08:27:07;;;;;;;1.33;0.95;;;;;;;9.01;89.03;98529.16;10087290;29;21081;-81
2023/03/14 08:32:17;;;;;;;0.80;0.57;;;;;;;8.95;89.27;98529.22;10071670;29;20144;-81
2023/03/14 08:37:20;;;;;;;0.40;0.40;;;;;;;8.88;89.42;98556.28;10087008;29;20063;-82
2023/03/14 08:42:27;;;;;;;0.28;0.28;;;;;;;8.60;90.12;98569.66;10089260;29;20181;-80
2023/03/14 08:47:29;;;;;;;0.40;0.10;;;;;;;7.42;89.91;98641.72;10095334;29;20061;-80
2023/03/14 08:52:31;;;;;;;0.08;0.08;;;;;;;6.48;89.43;98686.16;10090602;29;20056;-81
2023/03/14 08:57:32;;;;;;;0.10;0.10;;;;;;;5.80;89.26;98712.88;10078700;29;20097;-81
2023/03/14 09:02:34;;;;;;;0.10;0.10;;;;;;;5.55;89.42;98732.69;10099770;29;20063;-80
2023/03/14 09:07:37;;;;;;;0.68;0.32;;;;;;;5.02;89.45;98762.66;10098672;29;20072;-80
2023/03/14 09:12:39;;;;;;;0.10;0.10;;;;;;;4.60;89.85;98787.41;10088718;29;21526;-82
2023/03/14 09:17:43;;;;;;;0.10;0.10;;;;;;;4.17;89.95;98805.97;10089278;29;20057;-81
2023/03/14 09:22:44;;;;;;;4.38;0.30;;;;;;;3.64;90.00;98847.63;10091173;29;20057;-82
2023/03/14 09:27:46;;;;;;;0.10;0.10;;;;;;;3.32;90.18;98872.16;10102654;29;20081;-81
2023/03/14 09:32:47;;;;;;;0.10;0.10;;;;;;;3.08;90.05;98879.50;10086023;29;20049;-81
2023/03/14 09:37:49;;;;;;;0.10;0.10;;;;;;;2.96;90.50;98908.66;10087243;29;20435;-81
2023/03/14 09:42:53;;;;;;;0.10;0.10;;;;;;;2.95;90.58;98922.41;10084523;29;20425;-80
2023/03/14 09:47:56;;;;;;;0.10;0.10;;;;;;;3.05;90.90;98941.53;10086519;29;20057;-80
2023/03/14 09:53:05;;;;;;;0.10;0.10;;;;;;;3.05;91.23;98972.56;10090389;29;20063;-81
2023/03/14 09:58:14;;;;;;;0.10;0.10;;;;;;;3.08;91.38;98993.31;10087524;29;20144;-79
2023/03/14 10:03:26;;;;;;;0.10;0.10;;;;;;;3.17;91.61;99009.88;10091395;29;20281;-80
2023/03/14 10:08:27;;;;;;;0.10;0.10;;;;;;;3.14;91.66;99037.41;10107332;29;20128;-80
2023/03/14 10:13:29;;;;;;;0.45;0.30;;;;;;;3.10;91.76;99048.53;10090748;29;20188;-82
2023/03/14 10:18:34;;;;;;;0.65;0.65;;;;;;;3.24;91.81;99075.50;10107984;29;20044;-81
2023/03/14 10:23:38;;;;;;;0.13;0.13;;;;;;;3.36;92.05;99087.81;10094070;29;20336;-81
2023/03/14 10:28:45;;;;;;;0.10;0.10;;;;;;;3.35;92.30;99106.78;10098738;29;20183;-81
2023/03/14 10:34:03;;;;;;;0.00;0.00;;;;;;;3.47;92.30;99103.56;10100171;29;20056;-82
2023/03/14 10:39:17;;;;;;;0.10;0.10;;;;;;;3.55;92.01;99120.09;10100218;29;20084;-82
2023/03/14 10:44:22;;;;;;;0.10;0.10;;;;;;;3.65;92.21;99127.19;10083329;29;20071;-81
2023/03/14 10:49:28;;;;;;;0.10;0.10;;;;;;;3.77;92.21;99129.13;10092400;29;20451;-82
2023/03/14 10:54:30;;;;;;;0.10;0.10;;;;;;;4.06;92.32;99134.78;10105433;29;20479;-81
2023/03/14 10:59:38;;;;;;;0.10;0.10;;;;;;;4.36;92.18;99149.09;10086480;29;20112;-81
2023/03/14 11:05:04;;;;;;;0.90;0.30;;;;;;;4.94;92.06;99176.78;10089263;29;20077;-81
2023/03/14 11:10:27;;;;;;;0.20;0.20;;;;;;;5.09;91.69;99184.75;10086241;29;20057;-81
2023/03/14 11:15:44;;;;;;;0.75;0.75;;;;;;;5.15;90.73;99194.34;10095062;29;20049;-81
2023/03/14 11:21:17;;;;;;;0.90;0.35;;;;;;;5.54;90.28;99206.09;10090622;29;20149;-81
2023/03/14 11:26:25;;;;;;;0.95;0.32;;;;;;;5.83;89.72;99224.59;10097322;29;20502;-81
2023/03/14 11:32:30;;;;;;;2.90;0.55;;;;;;;5.70;88.44;99240.88;10099346;29;20537;-81
2023/03/14 11:37:40;;;;;;;1.77;0.30;;;;;;;5.82;87.11;99241.06;10096401;29;20593;-81
2023/03/14 11:42:47;;;;;;;0.77;0.40;;;;;;;6.00;85.91;99270.72;10108521;29;20613;-81
2023/03/14 11:48:06;;;;;;;2.70;0.63;;;;;;;5.89;84.64;99300.88;10092217;29;20067;-81
2023/03/14 11:53:14;;;;;;;1.67;0.68;;;;;;;5.39;83.42;99318.38;10090092;29;20049;-80
2023/03/14 11:58:25;;;;;;;2.30;0.65;;;;;;;5.22;82.59;99332.81;10092362;29;20045;-81
2023/03/14 12:03:39;;;;;;;4.53;0.70;;;;;;;5.64;81.38;99357.69;10094204;29;20070;-81
2023/03/14 12:08:46;;;;;;;5.90;0.63;;;;;;;6.27;79.99;99371.50;10084183;29;20628;-81
2023/03/14 12:13:51;;;;;;;1.45;0.22;;;;;;;6.64;77.99;99389.28;10106141;29;20049;-81
2023/03/14 12:18:53;;;;;;;0.38;0.35;;;;;;;6.66;75.86;99413.56;10083738;29;20075;-81
2023/03/14 12:23:57;;;;;;;2.42;1.30;;;;;;;6.15;74.01;99432.00;10090406;29;20076;-81
2023/03/14 12:29:02;;;;;;;7.78;1.35;;;;;;;5.97;72.86;99448.22;10090705;29;20056;-81
2023/03/14 12:34:09;;;;;;;1.60;0.50;;;;;;;5.82;71.75;99463.56;10092793;29;20053;-81
2023/03/14 12:39:42;;;;;;;3.72;0.68;;;;;;;6.28;71.01;99484.19;10091172;29;20057;-81
2023/03/14 12:44:49;;;;;;;2.55;0.90;;;;;;;6.80;69.34;99496.94;10084534;29;20049;-81
2023/03/14 12:49:55;;;;;;;1.65;0.30;;;;;;;7.16;67.12;99512.13;10091673;29;20084;-81
2023/03/14 12:55:12;;;;;;;0.90;0.30;;;;;;;6.66;65.83;99526.28;10092617;29;20238;-80
2023/03/14 13:00:19;;;;;;;2.25;0.25;;;;;;;6.00;65.43;99538.34;10099528;29;20135;-80
2023/03/14 13:05:22;;;;;;;0.15;0.15;;;;;;;5.73;64.94;99573.38;10091546;29;20060;-80
2023/03/14 13:10:38;;;;;;;0.77;0.43;;;;;;;5.70;63.31;99583.72;10087278;29;20506;-80
2023/03/14 13:15:46;;;;;;;0.10;0.10;;;;;;;6.18;62.12;99582.84;10076530;29;20411;-81
2023/03/14 13:20:54;;;;;;;1.20;0.40;;;;;;;6.64;61.40;99595.63;10076467;29;20133;-81
2023/03/14 13:32:16;;;;;;;2.92;0.88;;;;;;;5.87;61.94;99629.91;10085626;29;20064;-81
2023/03/14 13:37:24;;;;;;;0.43;0.20;;;;;;;5.67;62.53;99640.81;10084822;29;20463;-80
2023/03/14 13:42:28;;;;;;;6.75;1.33;;;;;;;5.72;62.99;99662.56;10084082;29;20536;-80
2023/03/14 13:47:31;;;;;;;4.78;0.45;;;;;;;5.52;63.23;99675.16;10085764;29;20433;-80
2023/03/14 13:52:37;;;;;;;1.65;0.43;;;;;;;5.52;63.56;99695.91;10084928;29;20045;-79
2023/03/14 13:57:48;;;;;;;2.63;0.35;;;;;;;5.90;63.53;99698.41;10089777;29;20550;-79
2023/03/14 14:02:51;;;;;;;2.08;0.73;;;;;;;5.94;62.10;99714.91;10078233;29;20545;-79
2023/03/14 14:07:53;;;;;;;1.85;0.63;;;;;;;5.97;62.09;99728.84;10071683;29;20048;-79
2023/03/14 14:13:04;;;;;;;0.22;0.22;;;;;;;6.16;61.58;99735.28;10098312;29;20399;-79
2023/03/14 14:18:10;;;;;;;1.35;0.75;;;;;;;5.92;60.92;99756.47;10078380;29;20063;-79
2023/03/14 14:23:25;;;;;;;1.25;0.85;;;;;;;5.94;61.31;99779.88;10100776;29;20504;-79
2023/03/14 14:28:28;;;;;;;0.10;0.10;;;;;;;5.99;60.87;99788.66;10078287;29;20542;-80
2023/03/14 14:33:40;;;;;;;0.47;0.35;;;;;;;5.81;60.13;99799.53;10081215;29;20061;-79
2023/03/14 14:38:41;;;;;;;0.20;0.20;;;;;;;5.55;59.68;99823.22;10098484;29;20053;-80
2023/03/14 14:43:43;;;;;;;0.47;0.35;;;;;;;5.51;59.56;99841.31;10083918;29;20105;-79
2023/03/14 14:48:51;;;;;;;0.13;0.13;;;;;;;5.49;59.00;99870.72;10076873;29;20849;-79
2023/03/14 14:54:09;;;;;;;0.10;0.10;;;;;;;5.39;59.23;99878.25;10086227;29;20411;-79
2023/03/14 14:59:21;;;;;;;2.10;0.68;;;;;;;5.22;59.96;99890.81;10075055;29;20044;-79
2023/03/14 15:04:23;;;;;;;9.85;0.40;;;;;;;5.09;60.09;99895.72;10082781;29;20535;-78
2023/03/14 15:09:24;;;;;;;0.10;0.10;;;;;;;5.16;59.79;99912.31;10079389;29;20514;-78
2023/03/14 15:14:26;;;;;;;1.40;0.40;;;;;;;5.31;59.77;99917.00;10079551;29;20053;-80
2023/03/14 15:19:30;;;;;;;0.30;0.30;;;;;;;5.54;59.82;99919.28;10094844;29;20466;-79
2023/03/14 15:24:31;;;;;;;0.20;0.20;;;;;;;5.53;59.87;99931.38;10078072;29;20057;-79
2023/03/14 15:29:33;;;;;;;0.10;0.10;;;;;;;5.54;59.84;99924.47;10081749;29;20056;-79
2023/03/14 15:34:35;;;;;;;0.60;0.60;;;;;;;5.78;59.99;99948.44;10079909;29;20067;-78
2023/03/14 15:39:36;;;;;;;0.68;0.35;;;;;;;5.60;59.03;99956.66;10094648;29;20049;-78
2023/03/14 15:44:38;;;;;;;0.10;0.10;;;;;;;5.54;58.57;99968.63;10095049;29;20506;-78
2023/03/14 15:49:40;;;;;;;0.65;0.65;;;;;;;5.45;58.62;99988.34;10094460;29;20140;-80
2023/03/14 15:54:52;;;;;;;1.35;0.57;;;;;;;5.37;57.85;99992.44;10072625;29;20072;-81
2023/03/14 15:59:57;;;;;;;0.52;0.38;;;;;;;5.29;57.93;100006.97;10094445;29;20120;-81
2023/03/14 16:05:03;;;;;;;0.20;0.20;;;;;;;5.17;58.08;100020.50;10077588;29;20057;-81
2023/03/14 16:10:16;;;;;;;0.32;0.28;;;;;;;5.05;58.47;100023.63;10085396;29;20060;-82
2023/03/14 16:16:03;;;;;;;1.20;0.65;;;;;;;5.02;58.77;100043.44;10069835;29;20060;-82
2023/03/14 16:21:15;;;;;;;0.73;0.47;;;;;;;5.03;59.45;100050.38;10060814;29;20465;-82
2023/03/14 16:26:23;;;;;;;0.28;0.28;;;;;;;4.92;60.25;100066.53;10090354;29;20060;-83
2023/03/14 16:31:25;;;;;;;3.72;0.95;;;;;;;4.65;60.17;100071.78;10096629;29;20628;-82
2023/03/14 16:36:32;;;;;;;5.22;1.02;;;;;;;4.53;59.80;100090.44;10102651;29;20466;-83
2023/03/14 16:41:37;;;;;;;0.20;0.20;;;;;;;4.45;59.84;100088.47;10077768;29;20053;-83
2023/03/14 16:46:44;;;;;;;0.10;0.10;;;;;;;4.41;60.20;100118.59;10091307;29;20045;-80
2023/03/14 16:52:13;;;;;;;0.10;0.10;;;;;;;4.28;60.51;100135.47;10086990;29;20143;-83
2023/03/14 16:57:29;;;;;;;0.35;0.35;;;;;;;4.22;61.03;100146.53;10070868;29;20109;-82
2023/03/14 17:02:37;;;;;;;0.60;0.38;;;;;;;4.09;61.73;100170.28;10102672;29;20057;-82
2023/03/14 17:07:42;;;;;;;0.88;0.60;;;;;;;3.95;62.46;100200.91;10086782;29;20417;-82
2023/03/14 17:12:46;;;;;;;0.28;0.22;;;;;;;3.80;63.59;100231.44;10090864;29;20422;-81
2023/03/14 17:17:47;;;;;;;0.55;0.25;;;;;;;3.07;65.15;100249.47;10088937;29;20145;-78
2023/03/14 17:22:49;;;;;;;0.38;0.38;;;;;;;2.66;67.93;100235.81;10104198;29;20053;-81
2023/03/14 17:27:56;;;;;;;4.55;1.30;;;;;;;2.53;69.59;100254.22;10103512;29;20425;-80
2023/03/14 17:33:05;;;;;;;0.70;0.40;;;;;;;2.38;71.29;100281.19;10084050;29;20053;-80
2023/03/14 17:38:37;;;;;;;0.10;0.10;;;;;;;2.23;72.41;100281.41;10056892;29;20047;-80
2023/03/14 17:43:57;;;;;;;0.55;0.45;;;;;;;2.17;73.13;100276.00;10058790;29;20312;-80
2023/03/14 17:49:18;;;;;;;2.05;0.77;;;;;;;2.12;73.87;100277.50;10087077;29;20049;-80
2023/03/14 17:54:36;;;;;;;0.20;0.20;;;;;;;2.05;74.48;100296.13;10067245;29;20055;-81
2023/03/14 17:59:55;;;;;;;0.10;0.10;;;;;;;2.03;74.33;100306.41;10090087;29;20072;-80
2023/03/14 18:05:46;;;;;;;2.72;0.70;;;;;;;1.98;74.46;100312.16;10075117;29;20084;-80
2023/03/14 18:11:06;;;;;;;0.90;0.75;;;;;;;1.91;75.00;100324.81;10082316;29;20123;-81
2023/03/14 18:16:44;;;;;;;1.10;0.45;;;;;;;1.81;75.49;100343.28;10088876;29;20076;-80
2023/03/14 18:22:47;;;;;;;0.57;0.57;;;;;;;1.80;76.11;100351.84;10091597;29;20158;-81
2023/03/14 18:28:46;;;;;;;0.70;0.55;;;;;;;1.75;76.51;100358.50;10044246;29;20049;-80
2023/03/14 18:33:51;;;;;;;0.50;0.40;;;;;;;1.70;76.85;100363.44;10025549;29;20060;-80
2023/03/14 18:39:10;;;;;;;0.10;0.10;;;;;;;1.67;77.21;100358.16;10088631;29;20497;-80
2023/03/14 18:44:37;;;;;;;1.65;0.22;;;;;;;1.62;77.01;100366.50;10105760;29;20160;-82
2023/03/14 18:50:12;;;;;;;0.30;0.25;;;;;;;1.55;77.59;100367.91;10107377;29;20053;-82
2023/03/14 18:55:51;;;;;;;3.40;0.98;;;;;;;1.46;77.97;100376.09;10106829;29;20065;-82
2023/03/14 19:01:16;;;;;;;;;;;;;;;;;;;;;
2023/03/14 19:06:43;;;;;;;1.30;0.52;;;;;;;1.40;78.62;100417.09;10205499;23;20056;-82
2023/03/14 19:12:13;;;;;;;1.02;0.55;;;;;;;1.42;79.08;100418.03;10116783;29;20045;-82
2023/03/14 19:18:10;;;;;;;5.10;2.65;;;;;;;1.39;79.62;100425.63;10106255;29;20145;-81
2023/03/14 19:23:35;;;;;;;1.30;0.30;;;;;;;1.36;79.95;100430.66;10110922;29;20080;-81
2023/03/14 19:30:04;;;;;;;0.43;0.40;;;;;;;1.41;80.16;100437.81;10091364;29;20132;-82
2023/03/14 19:35:33;;;;;;;0.10;0.10;;;;;;;1.42;80.35;100452.47;10091443;29;20115;-81
2023/03/14 19:46:57;;;;;;;0.20;0.20;;;;;;;1.34;80.04;100478.72;10089177;29;20049;-82
2023/03/14 19:52:21;;;;;;;0.20;0.20;;;;;;;1.29;80.13;100490.50;10107031;29;20060;-82
2023/03/14 19:57:45;;;;;;;0.10;0.10;;;;;;;1.14;80.17;100481.19;10083273;29;20744;-81
2023/03/14 20:02:58;;;;;;;0.82;0.22;;;;;;;1.10;80.45;100499.03;10110376;29;20706;-80
2023/03/14 20:08:21;;;;;;;0.22;0.22;;;;;;;1.03;80.28;100500.38;10103694;29;20068;-81
2023/03/14 20:13:36;;;;;;;0.20;0.20;;;;;;;0.97;80.66;100506.09;10135003;29;20211;-81
2023/03/14 20:18:55;;;;;;;0.20;0.20;;;;;;;0.97;80.66;100506.09;10118022;29;20045;-81
2023/03/14 20:24:13;;;;;;;0.52;0.38;;;;;;;0.83;80.57;100520.88;10097109;29;20056;-81
2023/03/14 20:29:42;;;;;;;0.85;0.38;;;;;;;0.78;81.17;100511.13;10106708;29;20140;-82
2023/03/14 20:35:02;;;;;;;1.25;1.17;;;;;;;0.73;81.65;100518.63;10121514;29;20053;-82
2023/03/14 20:40:14;;;;;;;0.17;0.17;;;;;;;0.65;82.11;100520.78;10129502;29;20083;-82
2023/03/14 20:45:50;;;;;;;0.40;0.40;;;;;;;0.60;82.17;100534.22;10114450;29;20091;-82
2023/03/14 20:51:04;;;;;;;0.20;0.20;;;;;;;0.57;82.84;100531.50;10113617;29;20053;-82
2023/03/14 20:56:15;;;;;;;0.43;0.35;;;;;;;0.52;83.14;100533.84;10116461;29;20060;-82
2023/03/14 21:01:36;;;;;;;0.70;0.68;;;;;;;0.46;83.14;100542.13;10127749;29;20451;-82
2023/03/14 21:13:35;;;;;;;2.05;0.43;;;;;;;0.43;83.79;100539.38;10122957;29;20052;-82
2023/03/14 21:18:47;;;;;;;0.20;0.20;;;;;;;0.40;83.88;100541.78;10114822;29;20583;-82
2023/03/14 21:24:04;;;;;;;1.13;0.70;;;;;;;0.48;84.16;100535.38;10152328;29;20104;-82
2023/03/14 21:29:35;;;;;;;0.40;0.40;;;;;;;0.54;84.23;100542.53;10128508;29;20112;-81
2023/03/14 21:34:38;;;;;;;0.10;0.10;;;;;;;0.63;84.44;100557.59;10136836;29;20057;-82
2023/03/14 21:40:00;;;;;;;0.10;0.10;;;;;;;0.69;84.34;100571.72;10141437;29;20052;-82
2023/03/14 21:45:42;;;;;;;0.57;0.55;;;;;;;0.69;83.97;100566.56;10126300;29;20060;-82
2023/03/14 21:50:52;;;;;;;0.20;0.20;;;;;;;0.65;84.10;100566.31;10118235;29;20121;-82
2023/03/14 21:56:08;;;;;;;0.50;0.50;;;;;;;0.58;84.02;100572.81;10158245;29;20064;-81
2023/03/14 22:01:19;;;;;;;0.52;0.52;;;;;;;0.53;84.42;100567.41;10134865;29;20168;-82
2023/03/14 22:06:45;;;;;;;2.63;1.00;;;;;;;0.45;84.58;100557.50;10110659;29;20048;-82
2023/03/14 22:12:17;;;;;;;0.40;0.40;;;;;;;0.39;84.51;100552.91;10104988;29;20621;-82
2023/03/14 22:17:24;;;;;;;1.98;1.05;;;;;;;0.32;84.78;100559.41;10111122;29;20055;-82
2023/03/14 22:22:33;;;;;;;0.20;0.20;;;;;;;0.26;84.64;100560.78;10075323;29;20097;-82
2023/03/14 22:27:53;;;;;;;0.38;0.38;;;;;;;0.25;84.95;100565.00;10099818;29;20124;-82
2023/03/14 22:33:12;;;;;;;0.20;0.20;;;;;;;0.19;84.85;100564.69;10101308;29;20534;-82
2023/03/14 22:38:22;;;;;;;0.20;0.20;;;;;;;0.20;85.32;100565.59;10100387;29;20045;-82
2023/03/14 22:43:34;;;;;;;0.25;0.25;;;;;;;0.17;85.40;100571.44;10119309;29;20450;-82
2023/03/14 22:48:55;;;;;;;2.63;1.38;;;;;;;0.20;85.00;100563.88;10110575;29;20072;-82
2023/03/14 22:54:02;;;;;;;0.40;0.40;;;;;;;0.23;85.35;100570.91;10129326;29;20052;-82
2023/03/14 22:59:20;;;;;;;0.20;0.20;;;;;;;0.23;85.30;100586.38;10091445;29;20110;-82
2023/03/14 23:04:35;;;;;;;2.88;1.20;;;;;;;0.25;85.09;100583.03;10097987;29;20048;-82
2023/03/14 23:09:41;;;;;;;0.52;0.43;;;;;;;0.27;85.23;100593.44;10087451;29;20064;-82
2023/03/14 23:15:00;;;;;;;0.20;0.20;;;;;;;0.29;84.86;100592.72;10079257;29;20052;-82
2023/03/14 23:20:15;;;;;;;0.10;0.10;;;;;;;0.30;84.99;100591.03;10088429;29;20059;-82
2023/03/14 23:25:40;;;;;;;0.75;0.75;;;;;;;0.26;85.02;100594.25;10095076;29;20056;-82
2023/03/14 23:31:04;;;;;;;4.28;0.63;;;;;;;0.22;84.71;100605.19;10094156;29;20084;-82
2023/03/14 23:36:50;;;;;;;0.38;0.38;;;;;;;0.19;84.93;100605.88;10094924;29;20109;-82
2023/03/14 23:42:35;;;;;;;0.45;0.45;;;;;;;0.16;84.62;100616.91;10129377;29;20065;-82
2023/03/14 23:47:57;;;;;;;0.30;0.30;;;;;;;0.15;85.02;100620.28;10086115;29;20056;-82
2023/03/14 23:53:16;;;;;;;10.18;0.57;;;;;;;0.19;85.00;100612.75;10080712;29;20509;-82
2023/03/14 23:58:20;;;;;;;0.75;0.65;;;;;;;0.17;85.15;100615.22;10089546;29;20088;-82
